Time;durP1;ratioP1;P1;durP2;ratioP2;P2;SDS_P1;SDS_P2;PMS_P1;PMS_P2;Temp;Humidity;BMP_temperature;BMP_pressure;BME280_temperature;BME280_humidity;BME280_pressure;Samples;Min_cycle;Max_cycle;Signal;HPM_P1;HPM_P2
2021/06/23 10:34:54;;;;;;;;;4.67;4.33;;;;;25.62;45.28;102062.25;5119776;27;1371893;-60
2021/06/23 10:37:20;;;;;;;;;5.25;4.75;;;;;25.80;44.81;102066.50;5138909;27;45592;-62
2021/06/23 10:40:16;;;;;;;;;6.50;6.50;;;;;26.07;38.43;102021.66;5113562;27;45680;-68
2021/06/23 10:42:41;;;;;;;;;4.33;4.33;;;;;25.76;41.52;102046.56;5095071;27;45396;-65
2021/06/23 10:45:09;;;;;;;;;5.67;4.00;;;;;25.82;42.85;102059.16;5078683;27;45518;-66
2021/06/23 10:47:38;;;;;;;;;3.00;3.00;;;;;25.74;44.04;102050.22;5095312;27;45304;-63
2021/06/23 10:50:07;;;;;;;;;6.33;4.00;;;;;25.84;41.22;102070.50;5094988;27;46577;-69
2021/06/23 10:52:34;;;;;;;;;5.67;5.67;;;;;25.68;40.29;102052.72;5092371;27;45457;-65
2021/06/23 10:55:20;;;;;;;;;5.50;5.50;;;;;25.64;40.72;102070.91;5093661;27;45433;-67
2021/06/23 10:57:47;;;;;;;;;6.00;6.00;;;;;25.32;40.00;102036.25;5090283;27;45682;-66
2021/06/23 11:00:20;;;;;;;;;5.00;5.00;;;;;25.43;39.79;102072.34;5095534;27;45374;-66
2021/06/23 11:02:48;;;;;;;;;5.67;5.67;;;;;25.36;39.78;102074.03;5095676;27;45429;-66
2021/06/23 11:05:21;;;;;;;;;5.25;5.25;;;;;25.29;39.58;102060.59;5093827;27;45500;-65
2021/06/23 11:07:47;;;;;;;;;6.00;6.00;;;;;25.18;39.42;102054.63;5094987;27;45440;-68
2021/06/23 11:10:16;;;;;;;;;7.50;6.00;;;;;25.16;39.56;102061.94;5111480;27;47352;-68
2021/06/23 11:15:19;;;;;;;;;5.25;5.25;;;;;24.95;39.27;102041.22;5089292;27;45310;-66
2021/06/23 11:17:46;;;;;;;;;5.75;5.00;;;;;24.89;38.68;102031.22;5094245;27;45708;-67
2021/06/23 11:20:21;;;;;;;;;5.50;5.25;;;;;25.06;38.87;102061.31;5090927;27;46397;-67
2021/06/23 11:22:47;;;;;;;;;7.50;6.00;;;;;24.83;38.56;102028.25;5094695;27;45397;-66
2021/06/23 11:25:28;;;;;;;;;6.75;5.75;;;;;24.95;39.46;102065.16;5089674;27;45362;-67
2021/06/23 11:28:09;;;;;;;;;4.50;4.00;;;;;24.88;39.52;102058.88;5086528;27;45377;-65
2021/06/23 11:30:52;;;;;;;;;4.75;4.75;;;;;24.88;39.12;102059.69;5093218;27;45904;-67
2021/06/23 11:33:27;;;;;;;;;7.50;5.00;;;;;24.96;40.74;102056.16;5095380;27;45550;-66
2021/06/23 11:35:56;;;;;;;;;8.67;5.67;;;;;24.99;40.17;102047.00;5093139;27;45678;-66
2021/06/23 11:38:22;;;;;;;;;6.00;6.00;;;;;25.06;40.04;102051.50;5094552;27;45370;-66
2021/06/23 11:40:48;;;;;;;;;8.00;6.00;;;;;25.25;39.64;102065.41;5094083;27;46319;-65
2021/06/23 11:43:13;;;;;;;;;7.25;7.25;;;;;25.22;39.83;102043.63;5093176;27;45326;-65
2021/06/23 11:45:39;;;;;;;;;6.33;5.33;;;;;25.28;39.70;102043.78;5095687;27;45438;-65
2021/06/23 11:48:04;;;;;;;;;4.75;4.75;;;;;25.37;40.18;102041.88;5096459;27;45227;-65
2021/06/23 11:50:30;;;;;;;;;7.00;6.00;;;;;25.51;40.02;102051.00;5088030;27;46147;-65
2021/06/23 11:52:55;;;;;;;;;6.00;6.00;;;;;25.68;40.17;102066.06;5081287;28;52673;-65
2021/06/23 11:55:24;;;;;;;;;7.00;6.25;;;;;25.60;39.72;102049.13;5082661;27;45262;-66
2021/06/23 11:57:53;;;;;;;;;5.00;5.00;;;;;25.82;40.04;102069.81;5082236;28;45460;-66
2021/06/23 12:00:20;;;;;;;;;6.00;6.00;;;;;25.77;40.22;102050.88;5097290;27;47263;-66
2021/06/23 12:02:46;;;;;;;;;6.00;5.50;;;;;25.92;39.50;102067.75;5076248;28;45478;-65
2021/06/23 12:05:12;;;;;;;;;6.25;6.25;;;;;25.87;39.81;102045.31;5082304;27;45440;-65
2021/06/23 12:07:37;;;;;;;;;6.00;5.50;;;;;25.98;39.47;102052.06;5082250;28;45370;-65
2021/06/23 12:10:04;;;;;;;;;4.25;4.25;;;;;26.05;39.82;102056.50;5081810;28;45998;-65
2021/06/23 12:12:30;;;;;;;;;5.75;5.75;;;;;25.99;39.67;102038.56;5080608;28;45294;-65
2021/06/23 12:14:55;;;;;;;;;4.33;4.33;;;;;25.98;39.64;102039.56;5081993;27;45304;-65
2021/06/23 12:17:21;;;;;;;;;7.67;6.33;;;;;26.13;39.76;102054.78;5082310;27;45473;-65
2021/06/23 12:19:47;;;;;;;;;8.00;6.67;;;;;26.22;39.45;102050.22;5082097;28;46346;-65
2021/06/23 12:22:13;;;;;;;;;6.33;5.33;;;;;26.21;39.64;102057.38;5082328;27;45177;-65
2021/06/23 12:24:39;;;;;;;;;5.33;5.33;;;;;26.20;39.62;102047.72;5082117;27;45315;-65
2021/06/23 12:27:04;;;;;;;;;6.67;6.67;;;;;26.24;39.72;102053.53;5081858;28;45465;-65
2021/06/23 12:29:30;;;;;;;;;4.00;4.00;;;;;26.26;39.76;102048.84;5081845;28;45353;-65
2021/06/23 12:31:55;;;;;;;;;6.67;6.00;;;;;26.32;39.57;102050.78;5079003;28;45272;-65
2021/06/23 12:34:21;;;;;;;;;6.25;4.25;;;;;26.40;39.72;102061.41;5082050;27;45200;-65
2021/06/23 12:36:46;;;;;;;;;6.00;6.00;;;;;26.31;39.65;102041.13;5080880;28;45460;-65
2021/06/23 12:39:11;;;;;;;;;4.67;4.67;;;;;26.32;39.60;102044.63;5080720;28;46067;-65
2021/06/23 12:41:37;;;;;;;;;5.33;5.33;;;;;26.43;39.71;102057.53;5074458;28;45383;-65
2021/06/23 12:44:02;;;;;;;;;5.75;4.25;;;;;26.42;39.43;102055.88;5081491;27;45707;-65
2021/06/23 12:46:28;;;;;;;;;5.00;5.00;;;;;26.51;39.68;102064.66;5073894;28;45643;-65
2021/06/23 12:48:53;;;;;;;;;5.67;4.33;;;;;26.54;39.59;102064.31;5072148;28;47019;-65
2021/06/23 12:51:19;;;;;;;;;7.25;4.75;;;;;26.55;39.45;102068.63;5081643;28;45326;-65
2021/06/23 12:53:44;;;;;;;;;4.25;4.25;;;;;26.46;39.56;102049.22;5081790;28;45248;-65
2021/06/23 12:56:09;;;;;;;;;4.00;4.00;;;;;26.59;39.39;102069.94;5114404;27;45424;-65
2021/06/23 12:58:35;;;;;;;;;6.33;4.67;;;;;26.51;39.78;102056.66;5081124;27;46184;-65
2021/06/23 13:01:02;;;;;;;;;4.00;4.00;;;;;26.59;39.75;102072.59;5072253;28;45338;-65
2021/06/23 13:03:27;;;;;;;;;5.67;4.33;;;;;26.54;39.57;102061.63;5080635;28;45371;-65
2021/06/23 13:05:53;;;;;;;;;6.25;6.25;;;;;26.59;39.41;102058.41;5081308;27;45216;-65
2021/06/23 13:08:18;;;;;;;;;5.00;4.00;;;;;26.65;39.94;102063.00;5080696;27;45314;-65
2021/06/23 13:10:44;;;;;;;;;5.33;4.33;;;;;26.58;39.72;102046.91;5080349;28;45247;-65
2021/06/23 13:13:10;;;;;;;;;5.33;5.00;;;;;26.67;39.74;102062.84;5081204;27;45291;-65
2021/06/23 13:15:37;;;;;;;;;3.33;3.33;;;;;26.56;39.40;102048.94;5114326;27;45259;-66
2021/06/23 13:18:03;;;;;;;;;6.33;5.00;;;;;26.71;39.67;102066.78;5081251;28;47429;-65
2021/06/23 13:20:28;;;;;;;;;3.33;3.33;;;;;26.69;39.58;102058.16;5081316;27;45256;-65
2021/06/23 13:22:54;;;;;;;;;5.33;5.00;;;;;26.65;39.65;102051.53;5081476;27;45306;-65
2021/06/23 13:25:20;;;;;;;;;5.25;5.25;;;;;26.67;39.60;102050.34;5080047;28;45575;-65
2021/06/23 13:27:46;;;;;;;;;5.00;3.33;;;;;26.77;39.44;102062.56;5080951;27;45302;-65
2021/06/23 13:30:11;;;;;;;;;8.00;6.00;;;;;26.77;39.68;102055.41;5080069;28;45431;-65
2021/06/23 13:32:37;;;;;;;;;6.00;6.00;;;;;26.78;39.30;102053.56;5081144;27;45247;-65
2021/06/23 13:35:03;;;;;;;;;4.00;4.00;;;;;26.72;39.71;102037.28;5081370;27;45559;-66
2021/06/23 13:37:28;;;;;;;;;5.00;5.00;;;;;26.80;39.64;102040.84;5079837;28;46212;-65
2021/06/23 13:39:53;;;;;;;;;4.00;4.00;;;;;26.73;39.62;102038.06;5080818;27;45287;-65
2021/06/23 13:42:19;;;;;;;;;5.00;5.00;;;;;26.76;40.08;102040.38;5080692;28;45184;-65
2021/06/23 13:44:44;;;;;;;;;7.00;5.33;;;;;26.77;39.40;102041.22;5080961;28;45208;-65
2021/06/23 13:47:10;;;;;;;;;5.00;5.00;;;;;26.71;39.60;102032.09;5065883;28;46611;-65
2021/06/23 13:49:35;;;;;;;;;5.00;5.00;;;;;26.79;39.64;102037.34;5079208;28;49509;-65
2021/06/23 13:52:00;;;;;;;;;7.00;4.33;;;;;26.68;39.50;102032.47;5080652;27;45263;-65
2021/06/23 13:54:26;;;;;;;;;5.00;5.00;;;;;26.72;39.71;102039.09;5080282;27;45481;-65
2021/06/23 13:56:52;;;;;;;;;4.75;4.75;;;;;26.56;39.23;102018.75;5077133;28;46300;-65
2021/06/23 13:59:17;;;;;;;;;5.33;5.33;;;;;26.70;39.18;102049.16;5071734;28;45317;-65
2021/06/23 14:01:42;;;;;;;;;6.33;6.33;;;;;26.59;39.21;102029.06;5080550;28;45359;-65
2021/06/23 14:04:08;;;;;;;;;4.25;4.25;;;;;26.72;39.19;102047.13;5080142;28;45306;-65
2021/06/23 14:06:33;;;;;;;;;8.67;5.00;;;;;26.59;38.88;102045.91;5080208;28;45471;-65
2021/06/23 14:08:59;;;;;;;;;4.67;4.67;;;;;26.71;39.13;102050.78;5080402;28;45357;-67
2021/06/23 14:11:24;;;;;;;;;5.67;4.67;;;;;26.41;39.27;102014.19;5079058;27;45315;-66
2021/06/23 14:13:50;;;;;;;;;5.25;5.25;;;;;26.49;39.45;102032.00;5078919;28;45518;-67
2021/06/23 14:16:15;;;;;;;;;5.00;5.00;;;;;26.52;38.99;102037.78;5080529;27;45354;-67
2021/06/23 14:18:40;;;;;;;;;6.50;5.00;;;;;26.58;38.88;102038.91;5079232;28;45386;-68
2021/06/23 14:21:06;;;;;;;;;6.67;5.33;;;;;26.45;39.19;102017.34;5080671;27;45291;-68
2021/06/23 14:23:33;;;;;;;;;5.50;5.50;;;;;26.51;38.78;102024.63;5079255;28;45507;-68
2021/06/23 14:25:59;;;;;;;;;8.25;6.50;;;;;26.59;39.12;102040.56;5080129;27;45438;-68
2021/06/23 14:28:24;;;;;;;;;4.00;4.00;;;;;26.48;39.17;102028.50;5078988;28;45262;-68
2021/06/23 14:30:50;;;;;;;;;5.00;5.00;;;;;26.49;39.00;102032.81;5079168;28;45288;-68
2021/06/23 14:33:15;;;;;;;;;6.00;6.00;;;;;26.51;38.90;102024.63;5080241;28;45483;-68
2021/06/23 14:35:40;;;;;;;;;5.00;4.33;;;;;26.48;39.05;102027.66;5078787;28;45577;-68
2021/06/23 14:38:06;;;;;;;;;5.33;4.00;;;;;26.43;38.97;102025.50;5077703;28;45278;-68
2021/06/23 14:40:31;;;;;;;;;3.67;3.67;;;;;26.43;39.39;102016.69;5078914;28;45497;-68
2021/06/23 14:42:57;;;;;;;;;5.00;4.00;;;;;26.50;38.75;102033.63;5078524;28;45686;-65
2021/06/23 14:46:08;;;;;;;;;6.00;5.00;;;;;26.46;39.18;102029.69;5114561;27;45306;-66
2021/06/23 14:48:34;;;;;;;;;5.00;5.00;;;;;26.41;39.15;102025.69;5095990;27;45350;-64
2021/06/23 14:50:59;;;;;;;;;5.00;5.00;;;;;26.58;39.12;102048.75;5097517;27;45210;-68
2021/06/23 14:53:25;;;;;;;;;6.00;6.00;;;;;26.41;39.27;102015.00;5130543;27;45493;-68
2021/06/23 14:55:50;;;;;;;;;7.25;6.25;;;;;26.40;39.58;102021.38;5095885;27;45471;-68
2021/06/23 14:58:16;;;;;;;;;6.50;4.75;;;;;26.46;39.68;102027.03;5097019;27;45282;-68
2021/06/23 15:00:41;;;;;;;;;5.50;5.50;;;;;26.42;39.63;102023.84;5096482;27;45255;-67
2021/06/23 15:03:07;;;;;;;;;5.75;4.00;;;;;26.46;39.33;102029.69;5097127;27;45577;-67
2021/06/23 15:05:32;;;;;;;;;4.75;4.75;;;;;26.34;39.54;102008.75;5097299;27;46330;-68
2021/06/23 15:07:58;;;;;;;;;6.67;6.67;;;;;26.36;39.55;102019.25;5096850;27;45242;-68
2021/06/23 15:10:23;;;;;;;;;4.67;4.33;;;;;26.35;39.66;102009.56;5097274;27;45249;-68
2021/06/23 15:12:48;;;;;;;;;4.33;4.00;;;;;26.32;39.29;102007.28;5129824;27;45561;-67
2021/06/23 15:15:14;;;;;;;;;4.50;4.50;;;;;26.51;39.54;102035.31;5096944;27;46088;-67
2021/06/23 15:17:40;;;;;;;;;7.00;7.00;;;;;26.38;39.31;102020.72;5096998;27;45355;-68
2021/06/23 15:20:06;;;;;;;;;6.00;6.00;;;;;26.31;39.38;102014.44;5097193;27;45318;-68
2021/06/23 15:22:31;;;;;;;;;3.67;3.67;;;;;26.34;39.19;102011.41;5095722;27;45290;-68
2021/06/23 15:24:57;;;;;;;;;4.50;4.00;;;;;26.38;38.86;102023.41;5096544;27;46118;-68
2021/06/23 15:27:22;;;;;;;;;7.25;5.50;;;;;26.45;39.45;102039.53;5095384;27;45397;-68
2021/06/23 15:29:47;;;;;;;;;4.00;4.00;;;;;26.38;39.25;102020.72;5096728;27;45264;-68
2021/06/23 15:32:15;;;;;;;;;5.75;5.75;;;;;26.43;38.92;102022.84;5129884;27;45482;-68
2021/06/23 15:34:40;;;;;;;;;6.00;5.00;;;;;26.37;39.35;102018.22;5096244;27;45473;-68
2021/06/23 15:37:06;;;;;;;;;6.25;5.25;;;;;26.49;39.22;102042.69;5096411;27;45382;-68
2021/06/23 15:39:32;;;;;;;;;7.75;5.25;;;;;26.49;39.11;102042.69;5095262;27;45452;-68
2021/06/23 15:41:57;;;;;;;;;7.00;4.00;;;;;26.45;39.20;102030.69;5096484;27;45169;-68
2021/06/23 15:44:22;;;;;;;;;8.50;6.00;;;;;26.25;39.17;102000.00;5095953;27;45327;-68
2021/06/23 15:46:48;;;;;;;;;5.33;5.00;;;;;26.38;39.10;102022.56;5096652;27;45343;-68
2021/06/23 15:49:14;;;;;;;;;5.00;5.00;;;;;26.35;39.02;102018.41;5096623;27;45521;-68
2021/06/23 15:51:39;;;;;;;;;5.00;5.00;;;;;26.45;39.19;102031.53;5096552;27;45460;-68
2021/06/23 15:54:05;;;;;;;;;5.00;5.00;;;;;26.34;39.20;102021.25;5096306;27;45401;-68
2021/06/23 15:56:30;;;;;;;;;5.67;5.33;;;;;26.33;39.14;102017.78;5088005;27;45290;-68
2021/06/23 15:58:56;;;;;;;;;4.00;4.00;;;;;26.27;39.30;102008.66;5082714;27;45349;-68
2021/06/23 16:01:21;;;;;;;;;5.00;5.00;;;;;26.43;39.51;102030.00;5082749;27;45404;-68
2021/06/23 16:03:46;;;;;;;;;6.25;4.50;;;;;26.21;39.30;101996.03;5082310;28;52770;-68
2021/06/23 16:06:12;;;;;;;;;5.75;5.75;;;;;26.43;39.19;102041.53;5082408;28;45330;-68
2021/06/23 16:08:37;;;;;;;;;6.25;3.75;;;;;26.28;39.36;102006.81;5082735;28;45349;-68
2021/06/23 16:11:03;;;;;;;;;5.33;5.33;;;;;26.23;38.95;102009.19;5082166;28;45321;-68
2021/06/23 16:13:28;;;;;;;;;5.50;5.50;;;;;26.39;39.49;102034.88;5082241;27;45806;-68
2021/06/23 16:15:54;;;;;;;;;4.25;4.25;;;;;26.27;39.50;102021.16;5078398;27;45400;-68
2021/06/23 16:18:20;;;;;;;;;5.50;5.50;;;;;26.36;39.37;102029.94;5081164;27;45339;-68
2021/06/23 16:20:50;;;;;;;;;5.00;5.00;;;;;26.18;39.34;102012.38;5079075;28;45393;-68
2021/06/23 16:23:17;;;;;;;;;4.67;4.67;;;;;26.38;39.16;102034.06;5080006;28;45473;-68
2021/06/23 16:25:43;;;;;;;;;5.00;5.00;;;;;26.36;39.18;102030.72;5081689;27;45326;-68
2021/06/23 16:28:08;;;;;;;;;5.75;4.50;;;;;26.32;39.20;102029.44;5081110;28;45263;-68
2021/06/23 16:30:34;;;;;;;;;5.50;4.75;;;;;26.26;39.43;102024.81;5081025;28;45410;-67
2021/06/23 16:33:00;;;;;;;;;5.00;4.50;;;;;26.24;39.40;102018.84;5097932;27;47280;-68
2021/06/23 16:35:26;;;;;;;;;6.00;5.00;;;;;26.25;39.32;102023.19;5082134;28;45334;-68
2021/06/23 16:37:52;;;;;;;;;6.25;4.50;;;;;26.27;39.45;102022.00;5082055;27;45513;-68
2021/06/23 16:40:17;;;;;;;;;4.50;4.50;;;;;26.21;39.43;102019.19;5075862;27;45332;-67
2021/06/23 16:42:44;;;;;;;;;7.00;6.00;;;;;26.37;39.58;102043.06;5067671;28;45709;-67
2021/06/23 16:45:10;;;;;;;;;5.00;5.00;;;;;26.35;39.47;102039.75;5081815;28;45425;-67
2021/06/23 16:47:35;;;;;;;;;4.25;4.25;;;;;26.37;39.28;102036.91;5080036;28;45307;-67
2021/06/23 16:50:03;;;;;;;;;5.00;5.00;;;;;26.35;39.48;102030.91;5081817;27;45480;-67
2021/06/23 16:52:28;;;;;;;;;6.00;6.00;;;;;26.13;39.41;102007.59;5080424;28;46373;-67
2021/06/23 16:54:54;;;;;;;;;5.25;5.25;;;;;26.31;39.70;102037.66;5081890;28;45395;-71
2021/06/23 16:57:19;;;;;;;;;6.00;5.50;;;;;26.36;39.48;102048.59;5081434;28;45177;-66
2021/06/23 16:59:45;;;;;;;;;3.50;3.50;;;;;26.36;39.40;102045.94;5080613;28;45308;-65
2021/06/23 17:02:10;;;;;;;;;7.00;7.00;;;;;26.30;39.83;102039.47;5062855;28;46093;-66
2021/06/23 17:04:37;;;;;;;;;7.00;4.67;;;;;26.13;39.61;102012.09;5079776;28;46862;-66
2021/06/23 17:07:03;;;;;;;;;7.00;6.00;;;;;26.33;39.53;102047.13;5081101;27;45499;-67
2021/06/23 17:09:29;;;;;;;;;4.00;4.00;;;;;26.22;40.05;102029.69;5080951;27;45299;-67
2021/06/23 17:11:55;;;;;;;;;6.25;5.25;;;;;26.31;39.56;102050.97;5081226;27;45498;-67
2021/06/23 17:14:20;;;;;;;;;5.50;5.00;;;;;26.31;39.56;102045.66;5081294;27;45756;-67
2021/06/23 17:16:46;;;;;;;;;6.00;6.00;;;;;26.33;39.72;102048.97;5080887;28;45576;-67
2021/06/23 17:19:11;;;;;;;;;5.50;5.50;;;;;26.28;39.67;102044.97;5081387;27;45256;-67
2021/06/23 17:21:37;;;;;;;;;8.25;5.50;;;;;26.29;39.76;102046.63;5080386;28;45494;-67
2021/06/23 17:24:03;;;;;;;;;7.50;6.75;;;;;26.17;39.72;102022.25;5059089;28;45332;-67
2021/06/23 17:26:29;;;;;;;;;12.00;6.00;;;;;26.28;39.78;102046.84;5078682;28;45386;-67
2021/06/23 17:28:55;;;;;;;;;6.75;5.00;;;;;26.28;39.58;102044.16;5079666;28;45438;-67
2021/06/23 17:31:20;;;;;;;;;6.00;6.00;;;;;26.26;39.85;102049.66;5079835;28;45281;-67
2021/06/23 17:33:45;;;;;;;;;5.00;5.00;;;;;26.26;39.86;102044.31;5081314;27;45165;-67
2021/06/23 17:36:11;;;;;;;;;7.00;6.00;;;;;26.15;40.06;102026.09;5081324;28;45819;-67
2021/06/23 17:38:38;;;;;;;;;6.25;6.25;;;;;26.07;39.92;102017.13;5079987;28;45401;-67
2021/06/23 17:41:03;;;;;;;;;8.25;5.25;;;;;26.23;40.01;102055.34;5080699;27;45418;-67
2021/06/23 17:43:28;;;;;;;;;7.75;5.50;;;;;26.18;39.84;102052.41;5079820;28;45315;-67
2021/06/23 17:45:55;;;;;;;;;6.25;6.25;;;;;26.21;39.98;102045.88;5080867;27;45434;-67
2021/06/23 17:48:20;;;;;;;;;6.00;5.00;;;;;26.09;40.03;102029.47;5081148;27;45346;-67
2021/06/23 17:50:46;;;;;;;;;5.50;5.25;;;;;26.15;40.02;102034.91;5080693;27;45287;-67
2021/06/23 17:53:16;;;;;;;;;5.00;4.25;;;;;26.13;40.03;102047.59;5111890;27;45334;-67
2021/06/23 17:55:42;;;;;;;;;5.75;5.75;;;;;26.22;40.20;102061.72;5058973;28;45270;-67
2021/06/23 17:58:07;;;;;;;;;6.25;4.50;;;;;26.22;40.08;102063.53;5068358;28;45525;-67
2021/06/23 18:00:33;;;;;;;;;5.00;5.00;;;;;26.21;39.98;102060.03;5079198;28;46880;-67
2021/06/23 18:02:59;;;;;;;;;5.25;5.25;;;;;26.15;40.08;102058.09;5080383;28;45437;-67
2021/06/23 18:05:24;;;;;;;;;7.25;5.00;;;;;26.09;40.09;102043.66;5080629;28;45314;-67
2021/06/23 18:07:50;;;;;;;;;5.00;5.00;;;;;26.15;40.29;102050.09;5077602;28;45413;-67
2021/06/23 18:10:16;;;;;;;;;5.25;5.25;;;;;26.07;40.13;102046.47;5080590;28;45436;-67
2021/06/23 18:12:41;;;;;;;;;4.50;4.50;;;;;26.10;40.15;102044.47;5080375;28;45267;-67
2021/06/23 18:15:07;;;;;;;;;6.00;4.50;;;;;26.07;40.22;102040.34;5080489;27;45454;-67
2021/06/23 18:17:33;;;;;;;;;6.00;6.00;;;;;26.13;40.18;102055.59;5080551;28;45334;-67
2021/06/23 18:19:58;;;;;;;;;6.00;6.00;;;;;26.16;40.29;102062.41;5079713;28;50393;-67
2021/06/23 18:22:23;;;;;;;;;6.00;6.00;;;;;26.18;40.40;102063.06;5080551;28;46879;-67
2021/06/23 18:24:49;;;;;;;;;6.50;5.00;;;;;26.02;40.25;102042.72;5080489;28;45278;-67
2021/06/23 18:27:14;;;;;;;;;5.25;4.50;;;;;26.05;40.28;102045.00;5078899;28;45254;-67
2021/06/23 18:29:40;;;;;;;;;5.50;4.50;;;;;26.15;40.35;102052.78;5078957;28;46293;-67
2021/06/23 18:32:06;;;;;;;;;5.00;5.00;;;;;26.05;40.08;102048.50;5079191;28;45294;-67
2021/06/23 18:34:32;;;;;;;;;7.00;5.00;;;;;26.10;40.38;102047.97;5043190;28;45553;-67
2021/06/23 18:36:57;;;;;;;;;4.75;4.00;;;;;26.15;40.15;102050.91;5045057;28;45498;-67
2021/06/23 18:39:22;;;;;;;;;4.00;4.00;;;;;26.08;40.40;102052.66;5076325;28;45386;-67
2021/06/23 18:41:48;;;;;;;;;4.00;4.00;;;;;26.15;40.16;102066.13;5050071;28;45376;-67
2021/06/23 18:44:13;;;;;;;;;7.25;6.00;;;;;26.03;40.14;102050.53;5078190;28;45230;-67
2021/06/23 18:46:39;;;;;;;;;6.00;5.00;;;;;26.14;40.40;102064.44;5080518;27;45240;-67
2021/06/23 18:49:04;;;;;;;;;5.50;5.50;;;;;26.01;40.37;102044.53;5080082;27;45460;-67
2021/06/23 18:51:30;;;;;;;;;4.00;3.67;;;;;26.09;40.55;102061.47;5080159;27;45373;-67
2021/06/23 18:53:56;;;;;;;;;5.75;4.50;;;;;26.00;40.19;102047.38;5080024;28;45278;-67
2021/06/23 18:56:21;;;;;;;;;3.50;3.50;;;;;26.09;40.69;102066.81;5079918;27;45387;-67
2021/06/23 18:58:47;;;;;;;;;4.00;4.00;;;;;26.04;40.52;102054.03;5073645;28;47059;-67
2021/06/23 19:01:13;;;;;;;;;5.25;5.25;;;;;26.07;40.33;102067.00;5070333;28;45439;-67
2021/06/23 19:03:39;;;;;;;;;4.50;4.50;;;;;26.12;40.37;102071.78;5080002;27;45504;-67
2021/06/23 19:06:04;;;;;;;;;6.00;4.50;;;;;26.12;40.45;102083.31;5080077;27;45209;-67
2021/06/23 19:08:30;;;;;;;;;8.00;6.00;;;;;26.10;40.66;102077.28;5078498;28;45631;-67
2021/06/23 19:10:55;;;;;;;;;4.00;4.00;;;;;25.96;40.74;102063.75;5058549;28;45334;-68
2021/06/23 19:13:21;;;;;;;;;4.75;4.00;;;;;25.98;40.73;102063.56;5078494;28;45299;-67
2021/06/23 19:15:46;;;;;;;;;5.00;4.25;;;;;25.90;40.58;102056.44;5078774;27;45405;-67
2021/06/23 19:18:11;;;;;;;;;5.50;5.50;;;;;25.93;40.64;102056.09;5064699;28;46199;-67
2021/06/23 19:20:37;;;;;;;;;5.50;5.50;;;;;25.87;40.83;102055.97;5078939;28;45299;-67
2021/06/23 19:23:02;;;;;;;;;6.00;4.50;;;;;26.00;40.61;102080.19;5079780;27;45510;-67
2021/06/23 19:25:29;;;;;;;;;5.00;3.00;;;;;26.01;40.67;102083.69;5055555;28;45236;-67
2021/06/23 19:27:55;;;;;;;;;5.00;5.00;;;;;25.99;40.59;102075.91;5061952;28;45716;-66
2021/06/23 19:30:21;;;;;;;;;4.75;4.75;;;;;26.05;40.65;102096.50;5078305;28;45528;-66
2021/06/23 19:32:49;;;;;;;;;4.50;4.50;;;;;25.89;40.85;102068.13;5082756;27;45540;-67
2021/06/23 19:35:16;;;;;;;;;4.00;4.00;;;;;25.99;40.53;102088.38;5083337;27;45404;-67
2021/06/23 19:37:43;;;;;;;;;4.50;4.00;;;;;26.03;40.73;102092.34;5054777;28;46245;-66
2021/06/23 19:40:09;;;;;;;;;7.50;5.75;;;;;26.05;40.81;102096.50;5061448;28;45323;-67
2021/06/23 19:42:35;;;;;;;;;3.75;3.75;;;;;25.95;40.62;102079.91;5079707;28;45392;-67
2021/06/23 19:45:00;;;;;;;;;4.25;4.25;;;;;26.00;40.75;102082.88;5082225;27;45308;-67
2021/06/23 19:47:25;;;;;;;;;5.00;4.00;;;;;25.98;40.68;102086.72;5082693;27;46514;-67
2021/06/23 19:49:51;;;;;;;;;7.25;4.50;;;;;26.03;40.88;102100.34;5070000;28;45332;-67
2021/06/23 19:52:16;;;;;;;;;5.00;5.00;;;;;26.04;40.75;102102.84;5081257;28;45430;-67
2021/06/23 19:54:42;;;;;;;;;6.25;6.25;;;;;25.98;40.59;102086.72;5082930;27;45441;-67
2021/06/23 19:57:07;;;;;;;;;4.00;4.00;;;;;26.04;40.80;102102.03;5066934;28;46084;-68
2021/06/23 19:59:33;;;;;;;;;4.00;4.00;;;;;26.03;40.80;102098.53;5070091;28;45312;-67
2021/06/23 20:01:59;;;;;;;;;7.25;6.00;;;;;26.03;40.65;102105.69;5080390;28;45310;-67
2021/06/23 20:04:24;;;;;;;;;5.00;4.50;;;;;25.89;40.87;102078.78;5064369;28;45608;-67
2021/06/23 20:06:50;;;;;;;;;4.50;4.50;;;;;25.93;40.99;102082.75;5064368;28;45306;-67
2021/06/23 20:09:15;;;;;;;;;5.50;4.25;;;;;25.82;40.92;102065.31;5061120;28;45280;-67
2021/06/23 20:11:41;;;;;;;;;4.50;4.50;;;;;25.87;40.89;102078.13;5062081;28;45739;-67
2021/06/23 20:14:07;;;;;;;;;4.25;4.25;;;;;25.93;40.90;102082.75;5062279;28;45466;-67
2021/06/23 20:16:32;;;;;;;;;4.75;4.50;;;;;25.97;40.63;102096.53;5079563;28;46546;-67
2021/06/23 20:18:58;;;;;;;;;4.25;4.25;;;;;25.91;41.07;102089.28;5082045;27;45173;-67
2021/06/23 20:21:23;;;;;;;;;5.75;5.75;;;;;25.94;40.96;102097.72;5081683;27;45266;-67
2021/06/23 20:23:48;;;;;;;;;4.50;4.50;;;;;25.92;40.71;102098.91;5082430;27;45509;-67
2021/06/23 20:26:17;;;;;;;;;4.75;4.75;;;;;25.94;40.93;102103.06;5062680;28;45483;-67
2021/06/23 20:28:43;;;;;;;;;5.50;4.50;;;;;25.82;41.15;102088.47;5072058;28;45374;-67
2021/06/23 20:31:09;;;;;;;;;3.00;3.00;;;;;25.94;41.00;102104.94;5082046;28;45440;-67
2021/06/23 20:33:34;;;;;;;;;5.00;4.00;;;;;25.99;40.75;102115.88;5082443;28;45278;-67
2021/06/23 20:36:00;;;;;;;;;4.50;4.50;;;;;25.98;41.10;102114.22;5081933;27;46313;-68
2021/06/23 20:38:25;;;;;;;;;4.33;4.33;;;;;25.78;40.78;102082.69;5060594;28;45205;-67
2021/06/23 20:40:51;;;;;;;;;6.75;5.50;;;;;25.83;41.15;102098.16;5079265;28;45398;-68
2021/06/23 20:43:16;;;;;;;;;4.25;4.25;;;;;25.96;40.64;102117.06;5080630;28;45585;-68
2021/06/23 20:45:42;;;;;;;;;4.75;4.75;;;;;25.85;40.81;102094.31;5081535;27;45318;-67
2021/06/23 20:48:08;;;;;;;;;5.25;5.25;;;;;25.93;41.09;102112.09;5070498;28;45275;-67
2021/06/23 20:50:33;;;;;;;;;3.75;3.75;;;;;25.93;40.91;102113.91;5077834;28;45507;-67
2021/06/23 20:52:59;;;;;;;;;6.50;5.25;;;;;25.95;40.78;102119.91;5053544;28;45562;-66
2021/06/23 20:55:34;;;;;;;;;4.00;4.00;;;;;25.99;40.90;102126.56;5046520;28;50654;-67
2021/06/23 20:58:01;;;;;;;;;5.25;5.25;;;;;25.85;41.05;102112.13;5081652;27;45374;-67
2021/06/23 21:00:27;;;;;;;;;4.00;4.00;;;;;25.98;40.84;102127.56;5061801;28;45468;-67
2021/06/23 21:02:57;;;;;;;;;4.00;4.00;;;;;25.89;41.00;102120.63;5061420;28;45466;-67
2021/06/23 21:05:26;;;;;;;;;5.50;4.75;;;;;25.86;40.95;102119.13;5059952;28;45455;-67
2021/06/23 21:07:52;;;;;;;;;3.25;3.25;;;;;25.96;41.07;102129.56;5052762;28;45272;-67
2021/06/23 21:10:18;;;;;;;;;5.75;5.75;;;;;25.89;40.89;102113.47;5081402;28;45371;-67
2021/06/23 21:12:53;;;;;;;;;5.75;4.75;;;;;25.93;40.91;102120.09;5080994;28;45243;-67
2021/06/23 21:15:19;;;;;;;;;4.75;4.75;;;;;25.94;40.80;102127.06;5080346;27;45321;-67
2021/06/23 21:18:19;;;;;;;;;5.25;3.50;;;;;25.94;40.97;102119.06;5081200;28;45362;-67
2021/06/23 21:20:48;;;;;;;;;3.75;3.75;;;;;25.94;41.17;102126.25;5062918;27;45469;-67
2021/06/23 21:23:20;;;;;;;;;4.00;4.00;;;;;25.94;40.87;102134.25;5059647;28;45565;-67
2021/06/23 21:26:11;;;;;;;;;3.75;3.75;;;;;25.92;40.16;102136.25;5086072;27;47445;-72
2021/06/23 21:28:43;;;;;;;;;6.50;5.00;;;;;25.74;39.73;102137.34;5069711;28;45448;-66
2021/06/23 21:31:09;;;;;;;;;4.00;4.00;;;;;25.43;39.57;102114.97;5081404;27;45358;-73
2021/06/23 21:33:36;;;;;;;;;5.00;5.00;;;;;25.16;39.55;102106.41;5069365;28;45555;-72
2021/06/23 21:36:12;;;;;;;;;5.25;4.75;;;;;24.99;39.71;102108.22;5042641;28;47227;-67
2021/06/23 21:39:01;;;;;;;;;6.75;5.00;;;;;24.89;40.11;102125.22;5051459;28;45263;-68
2021/06/23 21:41:26;;;;;;;;;3.00;3.00;;;;;24.69;40.69;102128.25;5069883;28;45514;-67
2021/06/23 21:43:52;;;;;;;;;5.00;5.00;;;;;24.46;41.12;102098.84;5077241;27;45335;-67
2021/06/23 21:46:30;;;;;;;;;4.00;4.00;;;;;24.60;40.98;102119.44;5073837;28;46116;-64
2021/06/23 21:48:55;;;;;;;;;7.50;4.25;;;;;24.57;41.01;102106.47;5076616;27;45235;-65
2021/06/23 21:51:21;;;;;;;;;4.25;4.25;;;;;24.78;41.01;102123.75;5079814;27;45413;-64
2021/06/23 21:53:46;;;;;;;;;4.00;3.75;;;;;24.71;41.46;102104.97;5077970;28;45553;-64
2021/06/23 21:56:13;;;;;;;;;6.75;4.75;;;;;24.71;41.34;102096.97;5075106;27;46042;-64
2021/06/23 21:58:39;;;;;;;;;4.25;4.00;;;;;24.77;40.84;102100.81;5069397;28;45233;-64